Weather at Aleppo Municipal Council Helipad

Public forecast

Using degrees Celsius for public forecast. Weather courtesy of forecast.io.

Closest aviation weather report (METAR) to Aleppo Municipal Council Helipad

Report is more than 2 hours old.

Closest report is Aleppo International Airport, 4.0 nm (7.4 km) ESE.

2024/02/24 00:00 (retrieved 3 hours ago)

OSAP 240000Z 10002KT 3000 BR FEW030 BKN200 09/08 Q1022

Closest aviation forecast (TAF) to Aleppo Municipal Council Helipad

Forecast is more than 12 hours old.

Closest forecast is Aleppo International Airport, 4.0 nm (7.4 km) ESE.

2024/02/22 18:33 (retrieved 1 day ago)

TAF TAF OSAP 221800Z 2218/2318 VRB03KT 5000 BR SCT030 TEMPO 2303/2306 2000 BR NSC